createdAt,value
2022-12-29T00:00:54.427Z,20.43
2022-12-29T00:03:57.317Z,18.25
2022-12-29T00:07:00.048Z,20.35
2022-12-29T00:10:02.498Z,20.63
2022-12-29T00:13:23.502Z,19.20
2022-12-29T00:16:26.392Z,17.48
2022-12-29T00:19:48.119Z,20.63
2022-12-29T00:23:11.071Z,18.05
2022-12-29T00:26:36.664Z,15.82
2022-12-29T00:30:00.676Z,16.92
2022-12-29T00:33:36.925Z,16.43
2022-12-29T00:36:42.932Z,17.20
2022-12-29T00:40:04.002Z,17.88
2022-12-29T00:43:26.344Z,14.27
2022-12-29T00:46:28.883Z,14.73
2022-12-29T00:49:32.253Z,14.43
2022-12-29T00:52:34.752Z,18.00
2022-12-29T00:55:39.163Z,21.50
2022-12-29T00:58:41.826Z,19.45
2022-12-29T01:01:45.676Z,14.38
2022-12-29T01:04:48.385Z,14.10
2022-12-29T01:07:52.650Z,16.45
2022-12-29T01:11:07.458Z,12.70
2022-12-29T01:14:09.920Z,13.50
2022-12-29T01:17:12.965Z,11.68
2022-12-29T01:20:15.947Z,15.00
2022-12-29T01:23:18.697Z,14.43
2022-12-29T01:26:21.840Z,11.85
2022-12-29T01:29:24.394Z,9.13
2022-12-29T01:32:26.993Z,7.82
2022-12-29T01:35:29.398Z,13.13
2022-12-29T01:38:34.934Z,11.43
2022-12-29T01:41:37.659Z,11.65
2022-12-29T01:44:50.988Z,8.37
2022-12-29T01:47:58.772Z,12.73
2022-12-29T01:51:01.241Z,13.85
2022-12-29T01:54:08.864Z,12.52
2022-12-29T01:57:18.640Z,11.20
2022-12-29T02:00:21.461Z,12.68
2022-12-29T02:03:27.731Z,14.23
2022-12-29T02:06:47.192Z,13.27
2022-12-29T02:09:53.896Z,12.90
2022-12-29T02:12:57.241Z,11.68
2022-12-29T02:16:19.785Z,14.20
2022-12-29T02:19:59.545Z,14.90
2022-12-29T02:23:58.289Z,11.57
2022-12-29T02:27:25.571Z,12.57
2022-12-29T02:30:56.947Z,12.32
2022-12-29T02:34:17.073Z,13.02
2022-12-29T02:37:28.206Z,12.38
2022-12-29T02:40:42.576Z,11.97
2022-12-29T02:44:03.753Z,13.32
2022-12-29T02:47:15.516Z,14.50
2022-12-29T02:50:32.561Z,13.30
2022-12-29T02:53:55.782Z,13.05
2022-12-29T02:56:58.718Z,13.45
2022-12-29T03:00:09.238Z,14.15
2022-12-29T03:03:30.476Z,13.18
2022-12-29T03:06:55.632Z,13.23
2022-12-29T03:10:04.494Z,12.27
2022-12-29T03:13:40.782Z,12.43
2022-12-29T03:16:47.261Z,12.55
2022-12-29T03:19:54.701Z,16.33
2022-12-29T03:23:04.119Z,19.10
2022-12-29T03:26:14.012Z,28.77
2022-12-29T03:29:20.300Z,12.05
2022-12-29T03:32:29.303Z,12.50
2022-12-29T03:35:37.369Z,11.05
2022-12-29T03:38:58.337Z,12.85
2022-12-29T03:42:05.910Z,14.77
2022-12-29T03:45:09.226Z,13.87
2022-12-29T03:48:14.319Z,14.80
2022-12-29T03:51:17.334Z,12.43
2022-12-29T03:54:21.524Z,14.40
2022-12-29T03:57:24.441Z,14.45
2022-12-29T04:00:35.216Z,13.43
2022-12-29T04:03:38.567Z,13.30
2022-12-29T04:06:41.605Z,13.25
2022-12-29T04:09:45.107Z,13.65
2022-12-29T04:12:53.713Z,13.50
2022-12-29T04:15:56.312Z,12.27
2022-12-29T04:18:59.216Z,15.20
2022-12-29T04:22:02.126Z,13.23
2022-12-29T04:25:06.423Z,14.30
2022-12-29T04:28:09.802Z,13.73
2022-12-29T04:31:51.146Z,13.05
2022-12-29T04:34:54.999Z,14.63
2022-12-29T04:37:58.300Z,13.88
2022-12-29T04:41:02.306Z,14.90
2022-12-29T04:44:05.539Z,14.68
2022-12-29T04:47:46.509Z,13.83
2022-12-29T04:51:18.165Z,12.38
2022-12-29T04:54:21.345Z,13.43
2022-12-29T04:57:31.293Z,13.33
2022-12-29T05:00:36.466Z,15.13
2022-12-29T05:03:39.045Z,15.02
2022-12-29T05:06:42.594Z,14.85
2022-12-29T05:09:45.805Z,14.20
2022-12-29T05:12:48.342Z,14.57
2022-12-29T05:15:54.809Z,15.68
2022-12-29T05:18:59.390Z,15.07
2022-12-29T05:22:02.273Z,13.80
2022-12-29T05:25:06.537Z,14.10
2022-12-29T05:28:17.407Z,14.57
2022-12-29T05:31:34.521Z,14.90
2022-12-29T05:34:37.155Z,16.70
2022-12-29T05:37:39.876Z,14.52
2022-12-29T05:40:44.213Z,15.57
2022-12-29T05:44:18.724Z,17.38
2022-12-29T05:47:29.725Z,18.27
2022-12-29T05:51:01.378Z,17.17
2022-12-29T05:54:13.817Z,17.67
2022-12-29T05:57:17.082Z,21.10
2022-12-29T06:00:23.597Z,20.10
2022-12-29T06:03:26.582Z,18.33
2022-12-29T06:06:30.468Z,16.10
2022-12-29T06:09:34.417Z,19.27
2022-12-29T06:12:38.258Z,19.83
2022-12-29T06:15:40.841Z,24.08
2022-12-29T06:18:44.643Z,31.15
2022-12-29T06:21:47.243Z,44.67
2022-12-29T06:24:50.001Z,29.27
2022-12-29T06:27:52.855Z,24.27
2022-12-29T06:30:56.292Z,19.80
2022-12-29T06:34:03.542Z,18.00
2022-12-29T06:37:09.119Z,21.30
2022-12-29T06:40:12.869Z,18.63
2022-12-29T06:43:31.718Z,17.50
2022-12-29T06:46:40.914Z,12.68
2022-12-29T06:49:43.884Z,18.13
2022-12-29T06:52:46.327Z,17.60
2022-12-29T06:55:48.988Z,14.73
2022-12-29T06:58:51.836Z,16.70
2022-12-29T07:01:54.542Z,14.53
2022-12-29T07:04:57.670Z,14.20
2022-12-29T07:08:00.905Z,13.73
2022-12-29T07:11:03.746Z,7.93
2022-12-29T07:14:07.042Z,36.28
2022-12-29T07:17:09.649Z,36.65
2022-12-29T07:20:12.644Z,70.40
2022-12-29T07:23:15.388Z,79.27
2022-12-29T07:26:19.142Z,72.97
2022-12-29T07:29:22.070Z,84.75
2022-12-29T07:32:24.562Z,70.63
2022-12-29T07:35:27.203Z,47.97
2022-12-29T07:38:29.641Z,34.28
2022-12-29T07:41:32.512Z,29.58
2022-12-29T07:44:38.719Z,30.02
2022-12-29T07:47:59.614Z,30.25
2022-12-29T07:51:02.393Z,25.92
2022-12-29T07:54:05.077Z,25.27
2022-12-29T07:57:07.806Z,34.13
2022-12-29T08:00:10.967Z,36.67
2022-12-29T08:03:16.547Z,34.87
2022-12-29T08:06:19.606Z,26.15
2022-12-29T08:09:24.425Z,21.65
2022-12-29T08:12:28.374Z,19.33
2022-12-29T08:15:32.647Z,21.00
2022-12-29T08:18:35.625Z,19.75
2022-12-29T08:21:38.429Z,19.60
2022-12-29T08:24:41.070Z,20.90
2022-12-29T08:27:43.742Z,17.85
2022-12-29T08:30:46.495Z,24.23
2022-12-29T08:33:49.099Z,25.80
2022-12-29T08:36:51.802Z,21.35
2022-12-29T08:39:54.295Z,12.48
2022-12-29T08:42:56.832Z,24.48
2022-12-29T08:46:00.028Z,21.92
2022-12-29T08:49:02.840Z,19.40
2022-12-29T08:52:05.541Z,18.20
2022-12-29T08:55:08.386Z,11.47
2022-12-29T08:58:15.399Z,14.55
2022-12-29T09:01:19.278Z,11.02
2022-12-29T09:04:22.075Z,11.63
2022-12-29T09:07:25.174Z,9.80
2022-12-29T09:10:27.670Z,13.10
2022-12-29T09:13:30.752Z,11.73
2022-12-29T09:16:34.113Z,11.45
2022-12-29T09:19:36.666Z,13.85
2022-12-29T09:22:39.394Z,12.75
2022-12-29T09:25:43.976Z,16.53
2022-12-29T09:28:48.136Z,17.40
2022-12-29T09:31:51.026Z,15.23
2022-12-29T09:34:53.512Z,14.90
2022-12-29T09:37:56.351Z,12.02
2022-12-29T09:41:21.019Z,12.88
2022-12-29T09:44:57.278Z,14.50
2022-12-29T09:48:01.350Z,14.80
2022-12-29T09:51:14.606Z,14.27
2022-12-29T09:54:40.457Z,13.75
2022-12-29T09:57:49.275Z,10.63
2022-12-29T10:01:09.019Z,11.10
2022-12-29T10:04:12.107Z,14.20
2022-12-29T10:07:41.807Z,13.13
2022-12-29T10:11:23.527Z,13.70
2022-12-29T10:14:52.167Z,13.02
2022-12-29T10:18:31.374Z,12.68
2022-12-29T10:22:10.484Z,6.78
2022-12-29T10:25:28.436Z,10.63
2022-12-29T10:28:40.680Z,11.02
2022-12-29T10:31:55.393Z,10.57
2022-12-29T10:35:27.338Z,19.80
2022-12-29T10:39:00.042Z,12.02
2022-12-29T10:42:20.317Z,10.67
2022-12-29T10:45:27.029Z,11.77
2022-12-29T10:48:32.754Z,15.07
2022-12-29T10:51:39.599Z,11.65
2022-12-29T10:54:50.529Z,13.88
2022-12-29T10:57:53.343Z,12.25
2022-12-29T11:00:56.591Z,7.40
2022-12-29T11:04:09.662Z,11.67
2022-12-29T11:07:16.085Z,12.93
2022-12-29T11:10:33.619Z,12.10
2022-12-29T11:13:52.202Z,10.90
2022-12-29T11:17:03.456Z,12.25
2022-12-29T11:20:31.131Z,10.23
2022-12-29T11:23:41.868Z,11.32
2022-12-29T11:26:45.067Z,14.23
2022-12-29T11:29:47.813Z,14.68
2022-12-29T11:32:55.270Z,19.05
2022-12-29T11:36:05.830Z,16.20
2022-12-29T11:39:26.887Z,16.70
2022-12-29T11:42:49.025Z,18.30
2022-12-29T11:45:54.749Z,13.67
2022-12-29T11:49:00.658Z,14.00
2022-12-29T11:52:03.324Z,23.63
2022-12-29T11:55:14.619Z,28.90
2022-12-29T11:58:17.254Z,19.23
2022-12-29T12:01:49.233Z,22.83
2022-12-29T12:04:57.167Z,28.05
2022-12-29T12:08:21.317Z,16.67
2022-12-29T12:11:43.112Z,18.13
2022-12-29T12:15:01.321Z,20.38
2022-12-29T12:18:44.076Z,18.83
2022-12-29T12:21:56.529Z,11.57
2022-12-29T12:25:12.224Z,20.15
2022-12-29T12:28:39.206Z,18.52
2022-12-29T12:32:00.403Z,19.27
2022-12-29T12:35:02.962Z,17.75
2022-12-29T12:38:38.230Z,16.08
2022-12-29T12:41:54.135Z,19.30
2022-12-29T12:45:24.060Z,14.05
2022-12-29T12:48:32.305Z,23.63
2022-12-29T12:51:46.347Z,19.27
2022-12-29T12:55:11.974Z,28.23
2022-12-29T12:58:32.509Z,18.38
2022-12-29T13:01:59.411Z,19.23
2022-12-29T13:05:26.197Z,16.08
2022-12-29T13:08:29.459Z,20.80
2022-12-29T13:12:16.853Z,21.25
2022-12-29T13:15:41.147Z,17.63
2022-12-29T13:18:43.718Z,14.05
2022-12-29T13:22:01.923Z,16.13
2022-12-29T13:25:20.922Z,19.00
2022-12-29T13:28:42.266Z,17.13
2022-12-29T13:32:11.366Z,21.40
2022-12-29T13:35:39.199Z,23.02
2022-12-29T13:38:49.815Z,20.38
2022-12-29T13:41:57.532Z,18.20
2022-12-29T13:45:07.259Z,20.13
2022-12-29T13:48:21.361Z,20.17
2022-12-29T13:51:28.073Z,25.85
2022-12-29T13:54:57.394Z,27.67
2022-12-29T13:58:14.822Z,34.13
2022-12-29T14:01:31.099Z,33.05
2022-12-29T14:04:36.037Z,27.00
2022-12-29T14:07:39.686Z,28.38
2022-12-29T14:10:52.932Z,28.58
2022-12-29T14:14:00.527Z,26.08
2022-12-29T14:17:15.233Z,31.92
2022-12-29T14:20:23.909Z,26.70
2022-12-29T14:23:35.967Z,22.77
2022-12-29T14:26:38.518Z,29.48
2022-12-29T14:29:40.841Z,29.20
2022-12-29T14:33:03.111Z,28.15
2022-12-29T14:36:34.102Z,29.02
2022-12-29T14:39:42.204Z,26.92
2022-12-29T14:42:46.853Z,32.85
2022-12-29T14:46:03.251Z,38.97
2022-12-29T14:49:05.880Z,25.85
2022-12-29T14:52:16.403Z,28.27
2022-12-29T14:55:19.102Z,26.17
2022-12-29T14:58:27.510Z,27.33
2022-12-29T15:01:53.561Z,38.20
2022-12-29T15:05:01.700Z,31.00
2022-12-29T15:08:05.285Z,32.40
2022-12-29T15:11:15.103Z,32.33
2022-12-29T15:14:38.717Z,28.80
2022-12-29T15:17:41.321Z,29.08
2022-12-29T15:20:44.305Z,27.10
2022-12-29T15:23:47.409Z,25.83
2022-12-29T15:26:55.871Z,33.35
2022-12-29T15:30:02.735Z,39.42
2022-12-29T15:33:20.044Z,28.87
2022-12-29T15:36:25.829Z,25.15
2022-12-29T15:39:31.145Z,24.10
2022-12-29T15:43:11.525Z,32.42
2022-12-29T15:46:14.990Z,31.50
2022-12-29T15:49:17.716Z,30.15
2022-12-29T15:52:22.505Z,31.98
2022-12-29T15:55:39.607Z,34.70
2022-12-29T15:58:45.706Z,37.22
2022-12-29T16:01:48.602Z,33.85
2022-12-29T16:05:19.073Z,35.90
2022-12-29T16:08:34.995Z,48.63
2022-12-29T16:11:45.606Z,45.95
2022-12-29T16:14:53.119Z,39.00
2022-12-29T16:17:56.720Z,35.05
2022-12-29T16:20:59.494Z,35.17
2022-12-29T16:24:08.397Z,34.10
2022-12-29T16:27:21.305Z,31.73
2022-12-29T16:30:35.685Z,31.00
2022-12-29T16:33:46.871Z,35.92
2022-12-29T16:37:20.579Z,31.87
2022-12-29T16:40:31.284Z,31.55
2022-12-29T16:43:42.609Z,30.90
2022-12-29T16:47:12.255Z,30.23
2022-12-29T16:50:28.054Z,29.45
2022-12-29T16:53:44.104Z,33.67
2022-12-29T16:56:46.942Z,45.05
2022-12-29T16:59:53.863Z,50.50
2022-12-29T17:03:01.029Z,52.30
2022-12-29T17:06:03.862Z,51.40
2022-12-29T17:09:22.929Z,54.17
2022-12-29T17:12:29.726Z,46.08
2022-12-29T17:15:35.175Z,48.28
2022-12-29T17:18:38.319Z,47.25
2022-12-29T17:21:42.174Z,47.95
2022-12-29T17:24:44.934Z,51.90
2022-12-29T17:27:50.791Z,52.92
2022-12-29T17:30:55.415Z,52.70
2022-12-29T17:33:59.174Z,51.80
2022-12-29T17:37:01.799Z,49.58
2022-12-29T17:40:07.367Z,45.07
2022-12-29T17:43:15.196Z,46.45
2022-12-29T17:46:18.196Z,53.03
2022-12-29T17:49:20.978Z,52.35
2022-12-29T17:52:23.582Z,59.22
2022-12-29T17:55:31.215Z,58.72
2022-12-29T17:58:37.707Z,53.58
2022-12-29T18:01:45.394Z,59.60
2022-12-29T18:04:48.782Z,62.45
2022-12-29T18:07:55.593Z,63.25
2022-12-29T18:10:58.876Z,60.90
2022-12-29T18:14:01.827Z,50.70
2022-12-29T18:17:12.627Z,59.50
2022-12-29T18:20:15.955Z,66.85
2022-12-29T18:23:24.453Z,59.00
2022-12-29T18:26:31.934Z,55.47
2022-12-29T18:29:35.652Z,47.63
2022-12-29T18:32:38.186Z,44.37
2022-12-29T18:35:44.879Z,41.75
2022-12-29T18:38:47.799Z,40.33
2022-12-29T18:41:50.264Z,38.43
2022-12-29T18:44:52.865Z,33.75
2022-12-29T18:47:55.306Z,30.85
2022-12-29T18:50:59.950Z,27.98
2022-12-29T18:54:03.106Z,26.55
2022-12-29T18:57:05.494Z,27.77
2022-12-29T19:00:09.417Z,27.63
2022-12-29T19:03:17.354Z,30.60
2022-12-29T19:06:21.384Z,32.67
2022-12-29T19:09:26.582Z,32.92
2022-12-29T19:12:29.182Z,42.10
2022-12-29T19:15:33.738Z,32.28
2022-12-29T19:18:45.489Z,29.00
2022-12-29T19:21:49.809Z,28.13
2022-12-29T19:24:59.586Z,27.48
2022-12-29T19:28:03.053Z,27.77
2022-12-29T19:31:05.864Z,32.13
2022-12-29T19:34:08.447Z,31.93
2022-12-29T19:37:11.171Z,28.05
2022-12-29T19:40:16.893Z,30.77
2022-12-29T19:43:19.901Z,28.17
2022-12-29T19:46:23.485Z,26.75
2022-12-29T19:49:26.107Z,27.63
2022-12-29T19:52:29.223Z,26.88
2022-12-29T19:55:33.114Z,28.05
2022-12-29T19:58:40.461Z,32.83
2022-12-29T20:01:45.973Z,31.58
2022-12-29T20:04:49.299Z,29.00
2022-12-29T20:07:52.293Z,29.02
2022-12-29T20:10:59.129Z,28.05
2022-12-29T20:14:01.770Z,27.73
2022-12-29T20:17:11.831Z,30.50
2022-12-29T20:20:14.666Z,33.92
2022-12-29T20:23:17.449Z,31.10
2022-12-29T20:26:24.748Z,29.17
2022-12-29T20:29:27.765Z,31.30
2022-12-29T20:32:30.354Z,30.00
2022-12-29T20:35:32.802Z,32.13
2022-12-29T20:38:35.596Z,31.52
2022-12-29T20:41:38.725Z,32.20
2022-12-29T20:44:41.146Z,30.03
2022-12-29T20:47:43.722Z,29.70
2022-12-29T20:50:46.142Z,30.92
2022-12-29T20:53:48.902Z,31.98
2022-12-29T20:56:52.415Z,31.13
2022-12-29T20:59:54.912Z,28.73
2022-12-29T21:02:58.557Z,29.00
2022-12-29T21:06:01.238Z,28.13
2022-12-29T21:09:04.854Z,29.58
2022-12-29T21:12:08.521Z,28.50
2022-12-29T21:15:11.234Z,28.60
2022-12-29T21:18:14.153Z,28.55
2022-12-29T21:21:19.593Z,28.52
2022-12-29T21:24:22.690Z,30.13
2022-12-29T21:27:25.349Z,31.30
2022-12-29T21:30:28.409Z,32.13
2022-12-29T21:33:31.266Z,29.05
2022-12-29T21:36:34.166Z,27.23
2022-12-29T21:39:37.155Z,26.63
2022-12-29T21:42:39.763Z,26.73
2022-12-29T21:45:42.256Z,25.37
2022-12-29T21:48:47.273Z,24.35
2022-12-29T21:51:56.823Z,25.17
2022-12-29T21:55:02.313Z,23.40
2022-12-29T21:58:23.397Z,23.10
2022-12-29T22:01:46.566Z,23.40
2022-12-29T22:05:08.283Z,24.08
2022-12-29T22:08:29.848Z,22.83
2022-12-29T22:11:51.331Z,23.17
2022-12-29T22:14:53.965Z,23.63
2022-12-29T22:17:57.305Z,24.13
2022-12-29T22:21:11.919Z,25.35
2022-12-29T22:24:14.423Z,24.58
2022-12-29T22:27:17.711Z,26.08
2022-12-29T22:30:20.658Z,24.70
2022-12-29T22:33:23.440Z,27.33
2022-12-29T22:36:27.183Z,27.23
2022-12-29T22:39:29.790Z,27.63
2022-12-29T22:42:33.175Z,28.27
2022-12-29T22:45:35.916Z,25.98
2022-12-29T22:48:38.588Z,27.73
2022-12-29T22:51:41.249Z,26.90
2022-12-29T22:54:43.757Z,27.33
2022-12-29T22:57:46.405Z,26.13
2022-12-29T23:00:49.278Z,25.33
2022-12-29T23:03:52.126Z,28.27
2022-12-29T23:06:55.055Z,27.58
2022-12-29T23:09:58.544Z,25.80
2022-12-29T23:13:01.330Z,27.75
2022-12-29T23:16:04.240Z,27.55
2022-12-29T23:19:06.810Z,27.70
2022-12-29T23:22:09.700Z,27.63
2022-12-29T23:25:12.147Z,28.50
2022-12-29T23:28:15.239Z,27.60
2022-12-29T23:31:18.071Z,25.15
2022-12-29T23:34:21.131Z,28.73
2022-12-29T23:37:23.692Z,26.52
2022-12-29T23:40:26.134Z,25.43
2022-12-29T23:43:28.905Z,25.88
2022-12-29T23:46:31.595Z,26.48
2022-12-29T23:49:34.127Z,27.50
2022-12-29T23:52:36.959Z,27.30
2022-12-29T23:55:42.623Z,26.83
2022-12-29T23:58:45.423Z,27.23
